createdAt,value
2018-04-30T00:01:07.175Z,99785.20
2018-04-30T00:03:33.607Z,99779.23
2018-04-30T00:06:00.057Z,99780.12
2018-04-30T00:08:26.561Z,99778.00
2018-04-30T00:10:52.930Z,99783.17
2018-04-30T00:13:19.345Z,99791.20
2018-04-30T00:15:45.802Z,99792.16
2018-04-30T00:18:12.139Z,99788.98
2018-04-30T00:20:38.563Z,99785.05
2018-04-30T00:23:05.002Z,99785.60
2018-04-30T00:25:32.335Z,99794.01
2018-04-30T00:27:58.864Z,99786.43
2018-04-30T00:30:25.317Z,99778.46
2018-04-30T00:32:51.833Z,99779.46
2018-04-30T00:35:18.208Z,99781.24
2018-04-30T00:37:44.646Z,99785.81
2018-04-30T00:40:11.053Z,99788.20
2018-04-30T00:42:37.450Z,99783.61
2018-04-30T00:45:03.922Z,99791.00
2018-04-30T00:47:30.311Z,99788.73
2018-04-30T00:49:56.764Z,99785.06
2018-04-30T00:52:23.213Z,99780.61
2018-04-30T00:54:59.622Z,99782.06
2018-04-30T00:57:27.141Z,99778.39
2018-04-30T00:59:53.575Z,99771.80
2018-04-30T01:02:19.991Z,99770.02
2018-04-30T01:04:46.473Z,99770.88
2018-04-30T01:07:13.065Z,99773.50
2018-04-30T01:09:39.603Z,99764.85
2018-04-30T01:12:06.102Z,99773.43
2018-04-30T01:14:32.516Z,99766.06
2018-04-30T01:16:59.003Z,99765.78
2018-04-30T01:19:25.434Z,99765.27
2018-04-30T01:21:51.885Z,99769.99
2018-04-30T01:24:18.403Z,99771.25
2018-04-30T01:26:44.850Z,99773.22
2018-04-30T01:29:11.251Z,99772.17
2018-04-30T01:31:37.682Z,99766.59
2018-04-30T01:34:04.106Z,99766.28
2018-04-30T01:36:30.545Z,99760.06
2018-04-30T01:38:56.956Z,99755.42
2018-04-30T01:41:23.958Z,99752.81
2018-04-30T01:43:50.409Z,99759.34
2018-04-30T01:46:16.819Z,99758.53
2018-04-30T01:48:44.249Z,99753.60
2018-04-30T01:51:10.661Z,99751.31
2018-04-30T01:53:37.035Z,99756.45
2018-04-30T01:56:03.549Z,99754.77
2018-04-30T01:58:29.954Z,99747.55
2018-04-30T02:00:56.444Z,99748.00
2018-04-30T02:03:22.852Z,99751.31
2018-04-30T02:05:49.304Z,99747.38
2018-04-30T02:08:15.669Z,99744.88
2018-04-30T02:10:42.177Z,99747.14
2018-04-30T02:13:08.712Z,99745.78
2018-04-30T02:15:35.107Z,99738.14
2018-04-30T02:18:01.510Z,99738.88
2018-04-30T02:20:27.870Z,99737.75
2018-04-30T02:22:54.282Z,99745.75
2018-04-30T02:25:20.707Z,99748.28
2018-04-30T02:27:47.080Z,99745.30
2018-04-30T02:30:13.505Z,99752.88
2018-04-30T02:32:39.989Z,99746.95
2018-04-30T02:35:06.387Z,99746.11
2018-04-30T02:37:32.825Z,99745.63
2018-04-30T02:39:59.283Z,99741.97
2018-04-30T02:42:25.657Z,99745.80
2018-04-30T02:44:52.047Z,99746.47
2018-04-30T02:47:18.451Z,99744.02
2018-04-30T02:49:44.918Z,99742.53
2018-04-30T02:52:11.305Z,99751.38
2018-04-30T02:54:37.778Z,99747.38
2018-04-30T02:57:04.169Z,99748.27
2018-04-30T02:59:30.562Z,99751.29
2018-04-30T03:01:56.967Z,99747.08
2018-04-30T03:04:23.377Z,99749.55
2018-04-30T03:06:49.761Z,99756.93
2018-04-30T03:09:16.153Z,99750.20
2018-04-30T03:11:42.562Z,99756.95
2018-04-30T03:14:09.976Z,99756.35
2018-04-30T03:16:36.368Z,99756.38
2018-04-30T03:19:02.802Z,99756.92
2018-04-30T03:21:29.256Z,99762.60
2018-04-30T03:23:55.665Z,99767.90
2018-04-30T03:26:22.945Z,99763.54
2018-04-30T03:28:50.978Z,99768.42
2018-04-30T03:31:17.377Z,99769.15
2018-04-30T03:33:43.799Z,99770.08
2018-04-30T03:36:10.233Z,99771.89
2018-04-30T03:38:36.622Z,99773.56
2018-04-30T03:41:02.993Z,99760.30
2018-04-30T03:43:29.417Z,99767.66
2018-04-30T03:45:55.825Z,99760.45
2018-04-30T03:48:22.248Z,99768.13
2018-04-30T03:50:48.664Z,99764.13
2018-04-30T03:53:15.099Z,99774.38
2018-04-30T03:55:41.578Z,99765.44
2018-04-30T03:58:07.976Z,99770.46
2018-04-30T04:00:46.532Z,99769.62
2018-04-30T04:03:25.031Z,99768.27
2018-04-30T04:06:03.497Z,99774.42
2018-04-30T04:08:29.977Z,99774.55
2018-04-30T04:10:56.541Z,99769.65
2018-04-30T04:13:22.924Z,99769.84
2018-04-30T04:15:49.333Z,99767.86
2018-04-30T04:18:15.884Z,99771.81
2018-04-30T04:20:42.268Z,99776.93
2018-04-30T04:23:08.653Z,99764.82
2018-04-30T04:25:35.057Z,99761.77
2018-04-30T04:28:01.465Z,99767.20
2018-04-30T04:30:27.861Z,99761.45
2018-04-30T04:32:54.269Z,99764.59
2018-04-30T04:35:20.713Z,99757.57
2018-04-30T04:37:47.172Z,99757.79
2018-04-30T04:40:13.676Z,99758.13
2018-04-30T04:42:40.372Z,99759.11
2018-04-30T04:45:06.853Z,99757.70
2018-04-30T04:47:33.330Z,99757.64
2018-04-30T04:49:59.845Z,99759.67
2018-04-30T04:52:26.311Z,99760.74
2018-04-30T04:54:52.694Z,99754.38
2018-04-30T04:57:19.149Z,99756.42
2018-04-30T04:59:45.517Z,99762.94
2018-04-30T05:02:11.931Z,99761.28
2018-04-30T05:04:38.394Z,99756.30
2018-04-30T05:07:04.913Z,99761.75
2018-04-30T05:09:31.285Z,99769.72
2018-04-30T05:11:57.709Z,99769.40
2018-04-30T05:14:24.074Z,99774.14
2018-04-30T05:16:50.478Z,99772.41
2018-04-30T05:19:17.233Z,99768.92
2018-04-30T05:21:43.665Z,99764.67
2018-04-30T05:24:10.356Z,99768.58
2018-04-30T05:26:36.893Z,99767.70
2018-04-30T05:29:03.258Z,99764.54
2018-04-30T05:31:29.866Z,99766.67
2018-04-30T05:33:56.329Z,99762.83
2018-04-30T05:36:23.171Z,99766.84
2018-04-30T05:38:49.981Z,99767.41
2018-04-30T05:41:16.457Z,99762.31
2018-04-30T05:43:42.867Z,99768.45
2018-04-30T05:46:09.254Z,99767.08
2018-04-30T05:48:35.841Z,99765.37
2018-04-30T05:51:02.250Z,99764.31
2018-04-30T05:53:29.557Z,99767.92
2018-04-30T05:55:56.070Z,99767.33
2018-04-30T05:58:22.497Z,99767.80
2018-04-30T06:00:49.188Z,99765.28
2018-04-30T06:03:15.695Z,99761.61
2018-04-30T06:05:43.107Z,99765.00
2018-04-30T06:08:09.457Z,99765.37
2018-04-30T06:10:35.886Z,99767.73
2018-04-30T06:13:02.221Z,99765.88
2018-04-30T06:15:28.736Z,99778.14
2018-04-30T06:17:55.271Z,99774.17
2018-04-30T06:20:22.355Z,99783.09
2018-04-30T06:22:48.881Z,99774.93
2018-04-30T06:25:15.268Z,99774.55
2018-04-30T06:27:45.012Z,99778.18
2018-04-30T06:30:12.262Z,99776.91
2018-04-30T06:32:38.818Z,99770.20
2018-04-30T06:35:05.222Z,99773.19
2018-04-30T06:37:36.477Z,99761.66
2018-04-30T06:40:06.588Z,99774.95
2018-04-30T06:42:33.041Z,99757.07
2018-04-30T06:44:59.652Z,99760.58
2018-04-30T06:47:26.106Z,99761.59
2018-04-30T06:49:52.656Z,99750.80
2018-04-30T06:52:19.013Z,99750.47
2018-04-30T06:54:45.710Z,99753.93
2018-04-30T06:57:12.106Z,99744.33
2018-04-30T06:59:38.526Z,99754.67
2018-04-30T07:02:05.193Z,99759.84
2018-04-30T07:04:31.592Z,99756.34
2018-04-30T07:06:58.007Z,99750.81
2018-04-30T07:09:24.567Z,99754.63
2018-04-30T07:11:50.835Z,99746.27
2018-04-30T07:14:17.258Z,99746.50
2018-04-30T07:16:44.086Z,99740.78
2018-04-30T07:19:10.531Z,99743.46
2018-04-30T07:21:36.857Z,99741.87
2018-04-30T07:24:03.273Z,99739.97
2018-04-30T07:26:29.847Z,99733.06
2018-04-30T07:28:56.339Z,99740.38
2018-04-30T07:31:22.684Z,99731.83
2018-04-30T07:33:49.026Z,99731.87
2018-04-30T07:36:15.567Z,99732.96
2018-04-30T07:38:42.171Z,99734.41
2018-04-30T07:41:08.627Z,99730.75
2018-04-30T07:43:34.978Z,99731.97
2018-04-30T07:46:01.593Z,99734.43
2018-04-30T07:48:28.009Z,99731.45
2018-04-30T07:50:54.385Z,99726.81
2018-04-30T07:53:20.716Z,99725.00
2018-04-30T07:55:47.130Z,99717.33
2018-04-30T07:58:13.705Z,99707.09
2018-04-30T08:00:40.428Z,99709.11
2018-04-30T08:03:06.882Z,99701.61
2018-04-30T08:05:34.153Z,99707.09
2018-04-30T08:08:00.515Z,99701.13
2018-04-30T08:10:26.912Z,99703.72
2018-04-30T08:12:53.472Z,99704.20
2018-04-30T08:15:19.846Z,99710.80
2018-04-30T08:17:46.222Z,99704.49
2018-04-30T08:20:13.621Z,99701.20
2018-04-30T08:22:40.091Z,99703.44
2018-04-30T08:25:06.606Z,99705.02
2018-04-30T08:27:33.021Z,99704.55
2018-04-30T08:30:00.037Z,99703.04
2018-04-30T08:32:26.520Z,99703.28
2018-04-30T08:34:53.061Z,99699.86
2018-04-30T08:37:19.473Z,99698.45
2018-04-30T08:39:45.795Z,99706.70
2018-04-30T08:42:12.163Z,99699.97
2018-04-30T08:44:38.518Z,99699.76
2018-04-30T08:47:04.867Z,99692.71
2018-04-30T08:49:32.187Z,99694.05
2018-04-30T08:51:58.686Z,99693.30
2018-04-30T08:54:25.010Z,99691.70
2018-04-30T08:56:51.345Z,99690.02
2018-04-30T08:59:17.661Z,99681.99
2018-04-30T09:01:44.399Z,99679.64
2018-04-30T09:04:11.250Z,99674.17
2018-04-30T09:06:37.717Z,99664.79
2018-04-30T09:09:04.149Z,99669.26
2018-04-30T09:11:30.684Z,99661.42
2018-04-30T09:13:57.221Z,99655.92
2018-04-30T09:16:23.605Z,99650.53
2018-04-30T09:18:49.985Z,99648.05
2018-04-30T09:21:16.429Z,99646.62
2018-04-30T09:23:43.057Z,99644.73
2018-04-30T09:26:09.602Z,99642.67
2018-04-30T09:28:36.231Z,99638.44
2018-04-30T09:31:02.640Z,99634.41
2018-04-30T09:33:28.928Z,99623.66
2018-04-30T09:35:55.302Z,99618.50
2018-04-30T09:38:21.642Z,99618.45
2018-04-30T09:40:48.092Z,99618.94
2018-04-30T09:43:14.632Z,99624.09
2018-04-30T09:45:40.954Z,99613.48
2018-04-30T09:48:07.293Z,99610.39
2018-04-30T09:50:33.638Z,99614.83
2018-04-30T09:53:00.083Z,99601.66
2018-04-30T09:55:26.526Z,99595.14
2018-04-30T09:57:53.117Z,99594.14
2018-04-30T10:00:19.650Z,99593.57
2018-04-30T10:02:46.201Z,99596.49
2018-04-30T10:05:12.538Z,99596.60
2018-04-30T10:07:38.921Z,99591.83
2018-04-30T10:10:05.240Z,99579.59
2018-04-30T10:12:31.704Z,99583.47
2018-04-30T10:14:58.167Z,99586.21
2018-04-30T10:17:24.578Z,99582.51
2018-04-30T10:19:51.103Z,99581.72
2018-04-30T10:22:17.666Z,99579.93
2018-04-30T10:24:44.074Z,99575.05
2018-04-30T10:27:10.483Z,99571.36
2018-04-30T10:29:36.842Z,99567.88
2018-04-30T10:32:03.296Z,99564.45
2018-04-30T10:34:29.761Z,99563.06
2018-04-30T10:36:56.266Z,99557.38
2018-04-30T10:39:22.606Z,99558.36
2018-04-30T10:41:49.985Z,99551.72
2018-04-30T10:44:16.449Z,99544.45
2018-04-30T10:46:42.791Z,99543.60
2018-04-30T10:49:09.086Z,99542.69
2018-04-30T10:51:36.597Z,99535.20
2018-04-30T10:54:02.994Z,99532.09
2018-04-30T10:56:29.442Z,99537.39
2018-04-30T10:58:55.858Z,99530.86
2018-04-30T11:01:22.213Z,99530.68
2018-04-30T11:03:48.547Z,99527.70
2018-04-30T11:06:15.581Z,99525.23
2018-04-30T11:08:41.934Z,99519.30
2018-04-30T11:11:08.283Z,99508.24
2018-04-30T11:13:34.714Z,99506.59
2018-04-30T11:16:01.167Z,99505.02
2018-04-30T11:18:27.530Z,99497.47
2018-04-30T11:20:53.937Z,99492.40
2018-04-30T11:23:20.347Z,99489.39
2018-04-30T11:25:46.754Z,99488.63
2018-04-30T11:28:13.186Z,99493.05
2018-04-30T11:30:39.504Z,99480.00
2018-04-30T11:33:05.979Z,99479.73
2018-04-30T11:35:32.361Z,99472.34
2018-04-30T11:37:58.741Z,99468.83
2018-04-30T11:40:25.063Z,99468.09
2018-04-30T11:42:51.506Z,99467.14
2018-04-30T11:45:17.940Z,99456.73
2018-04-30T11:47:44.503Z,99457.83
2018-04-30T11:50:11.073Z,99457.16
2018-04-30T11:52:37.635Z,99454.80
2018-04-30T11:55:04.161Z,99456.24
2018-04-30T11:57:30.500Z,99456.23
2018-04-30T11:59:56.869Z,99454.80
2018-04-30T12:02:24.751Z,99456.23
2018-04-30T12:04:51.111Z,99453.52
2018-04-30T12:07:17.588Z,99456.58
2018-04-30T12:09:44.428Z,99454.72
2018-04-30T12:12:10.872Z,99446.06
2018-04-30T12:14:37.280Z,99441.36
2018-04-30T12:17:03.641Z,99442.05
2018-04-30T12:19:30.090Z,99438.09
2018-04-30T12:21:56.521Z,99434.90
2018-04-30T12:24:23.270Z,99430.59
2018-04-30T12:26:49.922Z,99429.14
2018-04-30T12:29:16.289Z,99426.36
2018-04-30T12:31:43.350Z,99423.59
2018-04-30T12:34:09.849Z,99419.22
2018-04-30T12:36:36.150Z,99416.16
2018-04-30T12:39:02.629Z,99418.59
2018-04-30T12:41:29.038Z,99416.16
2018-04-30T12:43:55.377Z,99409.52
2018-04-30T12:46:22.022Z,99411.14
2018-04-30T12:48:48.426Z,99414.36
2018-04-30T12:51:14.923Z,99408.48
2018-04-30T12:53:41.458Z,99404.42
2018-04-30T12:56:07.801Z,99402.26
2018-04-30T12:58:34.158Z,99397.98
2018-04-30T13:01:00.798Z,99399.63
2018-04-30T13:03:28.422Z,99400.13
2018-04-30T13:05:54.806Z,99386.91
2018-04-30T13:08:21.157Z,99393.23
2018-04-30T13:10:47.618Z,99385.88
2018-04-30T13:13:13.994Z,99392.18
2018-04-30T13:15:40.523Z,99386.74
2018-04-30T13:18:06.894Z,99376.73
2018-04-30T13:20:33.457Z,99383.23
2018-04-30T13:22:59.805Z,99378.42
2018-04-30T13:25:26.321Z,99379.34
2018-04-30T13:27:52.691Z,99380.53
2018-04-30T13:30:18.986Z,99382.13
2018-04-30T13:32:45.429Z,99376.45
2018-04-30T13:35:11.777Z,99366.55
2018-04-30T13:37:38.139Z,99360.91
2018-04-30T13:40:05.215Z,99356.45
2018-04-30T13:42:31.596Z,99357.36
2018-04-30T13:44:58.022Z,99356.02
2018-04-30T13:47:24.530Z,99356.02
2018-04-30T13:49:50.990Z,99349.72
2018-04-30T13:52:17.397Z,99343.42
2018-04-30T13:54:43.797Z,99344.52
2018-04-30T13:57:10.104Z,99341.23
2018-04-30T13:59:36.468Z,99333.53
2018-04-30T14:02:02.961Z,99335.84
2018-04-30T14:04:29.373Z,99331.37
2018-04-30T14:06:55.896Z,99333.84
2018-04-30T14:09:22.330Z,99335.83
2018-04-30T14:11:48.635Z,99333.38
2018-04-30T14:14:14.990Z,99330.68
2018-04-30T14:16:41.612Z,99332.13
2018-04-30T14:19:07.942Z,99331.67
2018-04-30T14:21:34.301Z,99335.52
2018-04-30T14:24:00.727Z,99343.20
2018-04-30T14:26:27.056Z,99335.92
2018-04-30T14:28:53.593Z,99339.88
2018-04-30T14:31:20.948Z,99338.95
2018-04-30T14:33:47.294Z,99340.41
2018-04-30T14:36:13.638Z,99341.91
2018-04-30T14:38:39.993Z,99346.31
2018-04-30T14:41:06.342Z,99350.12
2018-04-30T14:43:32.808Z,99348.27
2018-04-30T14:45:59.166Z,99343.76
2018-04-30T14:48:25.814Z,99349.61
2018-04-30T14:50:52.322Z,99345.74
2018-04-30T14:53:18.657Z,99346.08
2018-04-30T14:55:44.983Z,99341.05
2018-04-30T14:58:11.443Z,99342.33
2018-04-30T15:00:39.646Z,99339.17
2018-04-30T15:03:05.988Z,99333.53
2018-04-30T15:05:32.314Z,99334.48
2018-04-30T15:07:58.645Z,99334.32
2018-04-30T15:10:25.009Z,99332.39
2018-04-30T15:12:51.394Z,99325.98
2018-04-30T15:15:17.752Z,99329.39
2018-04-30T15:17:44.078Z,99337.72
2018-04-30T15:20:10.402Z,99333.42
2018-04-30T15:22:36.727Z,99332.98
2018-04-30T15:25:03.328Z,99339.61
2018-04-30T15:27:29.609Z,99335.00
2018-04-30T15:29:55.946Z,99340.88
2018-04-30T15:32:22.278Z,99340.71
2018-04-30T15:34:48.759Z,99335.94
2018-04-30T15:37:15.102Z,99332.77
2018-04-30T15:39:41.470Z,99332.48
2018-04-30T15:42:07.801Z,99333.29
2018-04-30T15:44:34.188Z,99335.22
2018-04-30T15:47:00.597Z,99333.82
2018-04-30T15:49:26.975Z,99326.83
2018-04-30T15:51:53.539Z,99323.02
2018-04-30T15:54:19.914Z,99325.30
2018-04-30T15:56:46.298Z,99325.77
2018-04-30T15:59:13.259Z,99325.14
2018-04-30T16:01:39.736Z,99320.70
2018-04-30T16:04:06.276Z,99321.31
2018-04-30T16:06:32.623Z,99316.55
2018-04-30T16:08:59.031Z,99314.68
2018-04-30T16:11:25.437Z,99316.53
2018-04-30T16:13:51.769Z,99315.09
2018-04-30T16:16:18.285Z,99322.02
2018-04-30T16:18:44.660Z,99317.91
2018-04-30T16:21:10.981Z,99311.02
2018-04-30T16:23:37.267Z,99309.34
2018-04-30T16:26:03.630Z,99303.37
2018-04-30T16:28:29.938Z,99310.17
2018-04-30T16:30:56.509Z,99319.13
2018-04-30T16:33:22.822Z,99312.80
2018-04-30T16:35:49.210Z,99310.50
2018-04-30T16:38:15.554Z,99313.36
2018-04-30T16:40:42.313Z,99314.84
2018-04-30T16:43:08.641Z,99319.89
2018-04-30T16:45:35.129Z,99316.18
2018-04-30T16:48:01.475Z,99316.23
2018-04-30T16:50:28.347Z,99315.89
2018-04-30T16:52:54.730Z,99319.45
2018-04-30T16:55:21.015Z,99317.45
2018-04-30T16:57:47.328Z,99320.20
2018-04-30T17:00:13.702Z,99322.77
2018-04-30T17:02:40.078Z,99329.81
2018-04-30T17:05:06.568Z,99329.76
2018-04-30T17:07:33.001Z,99334.52
2018-04-30T17:09:59.401Z,99334.28
2018-04-30T17:12:25.717Z,99330.88
2018-04-30T17:14:52.030Z,99332.86
2018-04-30T17:17:18.543Z,99333.16
2018-04-30T17:19:47.223Z,99343.91
2018-04-30T17:22:13.517Z,99345.23
2018-04-30T17:24:39.876Z,99348.52
2018-04-30T17:27:07.232Z,99347.98
2018-04-30T17:29:34.463Z,99350.75
2018-04-30T17:32:00.840Z,99357.86
2018-04-30T17:34:27.370Z,99356.14
2018-04-30T17:36:53.826Z,99353.66
2018-04-30T17:39:20.351Z,99360.56
2018-04-30T17:41:46.681Z,99353.78
2018-04-30T17:44:13.013Z,99359.38
2018-04-30T17:46:39.494Z,99362.91
2018-04-30T17:49:05.833Z,99364.56
2018-04-30T17:51:32.182Z,99360.52
2018-04-30T17:54:00.156Z,99362.44
2018-04-30T17:56:26.789Z,99361.63
2018-04-30T17:58:53.180Z,99359.93
2018-04-30T18:01:19.492Z,99365.73
2018-04-30T18:03:46.089Z,99367.63
2018-04-30T18:06:13.343Z,99375.52
2018-04-30T18:08:40.653Z,99378.31
2018-04-30T18:11:07.131Z,99381.03
2018-04-30T18:13:33.857Z,99377.52
2018-04-30T18:16:00.173Z,99384.37
2018-04-30T18:18:26.618Z,99394.41
2018-04-30T18:20:52.948Z,99399.27
2018-04-30T18:23:19.356Z,99397.98
2018-04-30T18:25:45.998Z,99398.27
2018-04-30T18:28:12.343Z,99406.87
2018-04-30T18:30:38.701Z,99402.57
2018-04-30T18:33:05.062Z,99415.51
2018-04-30T18:35:31.466Z,99414.16
2018-04-30T18:37:57.796Z,99418.71
2018-04-30T18:40:24.137Z,99422.91
2018-04-30T18:42:50.561Z,99426.11
2018-04-30T18:45:16.974Z,99428.33
2018-04-30T18:47:44.349Z,99431.42
2018-04-30T18:50:11.063Z,99434.89
2018-04-30T18:52:37.830Z,99432.17
2018-04-30T18:55:04.366Z,99433.54
2018-04-30T18:57:30.730Z,99435.72
2018-04-30T18:59:57.088Z,99438.88
2018-04-30T19:02:24.282Z,99442.45
2018-04-30T19:04:51.261Z,99445.96
2018-04-30T19:07:17.917Z,99449.09
2018-04-30T19:09:44.234Z,99446.96
2018-04-30T19:12:11.625Z,99450.48
2018-04-30T19:14:38.484Z,99455.69
2018-04-30T19:17:04.878Z,99452.91
2018-04-30T19:19:31.413Z,99451.69
2018-04-30T19:21:57.853Z,99454.40
2018-04-30T19:24:24.210Z,99448.98
2018-04-30T19:26:50.570Z,99454.67
2018-04-30T19:29:16.926Z,99453.58
2018-04-30T19:31:43.412Z,99454.28
2018-04-30T19:34:09.706Z,99457.00
2018-04-30T19:36:36.586Z,99459.56
2018-04-30T19:39:03.140Z,99463.17
2018-04-30T19:41:29.490Z,99469.50
2018-04-30T19:43:56.113Z,99465.02
2018-04-30T19:46:22.478Z,99464.02
2018-04-30T19:48:48.821Z,99470.98
2018-04-30T19:51:15.180Z,99468.13
2018-04-30T19:53:41.639Z,99471.12
2018-04-30T19:56:07.971Z,99471.20
2018-04-30T19:58:34.370Z,99476.66
2018-04-30T20:01:00.698Z,99480.11
2018-04-30T20:03:27.022Z,99483.09
2018-04-30T20:05:53.368Z,99484.13
2018-04-30T20:08:19.715Z,99485.52
2018-04-30T20:10:46.035Z,99483.81
2018-04-30T20:13:12.365Z,99484.41
2018-04-30T20:15:38.694Z,99489.96
2018-04-30T20:18:05.023Z,99492.20
2018-04-30T20:20:31.439Z,99492.58
2018-04-30T20:22:57.720Z,99493.34
2018-04-30T20:25:24.006Z,99495.52
2018-04-30T20:27:50.513Z,99492.97
2018-04-30T20:30:16.869Z,99496.00
2018-04-30T20:32:43.152Z,99492.91
2018-04-30T20:35:09.542Z,99496.72
2018-04-30T20:37:35.926Z,99496.85
2018-04-30T20:40:02.314Z,99499.09
2018-04-30T20:42:28.686Z,99499.86
2018-04-30T20:44:55.021Z,99498.80
2018-04-30T20:47:21.358Z,99501.09
2018-04-30T20:49:47.686Z,99505.33
2018-04-30T20:52:14.051Z,99503.16
2018-04-30T20:54:40.347Z,99506.59
2018-04-30T20:57:06.713Z,99515.58
2018-04-30T20:59:33.037Z,99513.31
2018-04-30T21:01:59.457Z,99514.22
2018-04-30T21:04:25.960Z,99517.78
2018-04-30T21:06:52.322Z,99518.64
2018-04-30T21:09:18.824Z,99515.14
2018-04-30T21:11:45.245Z,99515.13
2018-04-30T21:14:11.563Z,99515.84
2018-04-30T21:16:37.981Z,99516.23
2018-04-30T21:19:04.414Z,99524.96
2018-04-30T21:21:30.818Z,99522.87
2018-04-30T21:23:57.170Z,99518.34
2018-04-30T21:26:23.581Z,99515.66
2018-04-30T21:28:49.927Z,99517.13
2018-04-30T21:31:16.273Z,99518.47
2018-04-30T21:33:42.589Z,99522.30
2018-04-30T21:36:08.913Z,99523.55
2018-04-30T21:38:35.246Z,99522.58
2018-04-30T21:41:01.745Z,99517.45
2018-04-30T21:43:28.070Z,99523.92
2018-04-30T21:45:54.421Z,99532.23
2018-04-30T21:48:20.841Z,99531.83
2018-04-30T21:50:47.182Z,99528.40
2018-04-30T21:53:13.603Z,99530.33
2018-04-30T21:55:39.993Z,99534.38
2018-04-30T21:58:06.385Z,99536.66
2018-04-30T22:00:32.810Z,99533.63
2018-04-30T22:02:59.164Z,99533.97
2018-04-30T22:05:25.639Z,99530.84
2018-04-30T22:07:52.005Z,99539.67
2018-04-30T22:10:18.384Z,99543.32
2018-04-30T22:12:44.734Z,99540.84
2018-04-30T22:15:11.116Z,99541.31
2018-04-30T22:17:37.529Z,99536.48
2018-04-30T22:20:03.881Z,99537.64
2018-04-30T22:22:30.297Z,99535.83
2018-04-30T22:24:56.705Z,99533.22
2018-04-30T22:27:23.067Z,99530.74
2018-04-30T22:29:50.111Z,99530.80
2018-04-30T22:32:16.549Z,99532.50
2018-04-30T22:34:42.937Z,99535.11
2018-04-30T22:37:09.251Z,99534.40
2018-04-30T22:39:35.674Z,99525.71
2018-04-30T22:42:02.775Z,99529.41
2018-04-30T22:44:29.170Z,99530.80
2018-04-30T22:46:55.550Z,99530.55
2018-04-30T22:49:21.885Z,99524.41
2018-04-30T22:51:48.211Z,99521.44
2018-04-30T22:54:14.601Z,99525.16
2018-04-30T22:56:41.001Z,99522.56
2018-04-30T22:59:07.381Z,99525.42
2018-04-30T23:01:33.847Z,99515.59
2018-04-30T23:04:00.261Z,99512.95
2018-04-30T23:06:26.689Z,99503.56
2018-04-30T23:08:53.108Z,99500.15
2018-04-30T23:11:19.578Z,99498.52
2018-04-30T23:13:45.973Z,99495.25
2018-04-30T23:16:12.402Z,99494.50
2018-04-30T23:18:38.865Z,99497.41
2018-04-30T23:21:05.272Z,99494.55
2018-04-30T23:23:31.740Z,99499.25
2018-04-30T23:25:58.205Z,99494.03
2018-04-30T23:28:24.586Z,99494.80
2018-04-30T23:30:50.993Z,99497.47
2018-04-30T23:33:17.362Z,99498.44
2018-04-30T23:35:43.778Z,99494.12
2018-04-30T23:38:10.121Z,99495.38
2018-04-30T23:40:36.522Z,99488.48
2018-04-30T23:43:02.938Z,99490.36
2018-04-30T23:45:29.376Z,99486.92
2018-04-30T23:47:55.768Z,99490.08
2018-04-30T23:50:22.157Z,99488.83
2018-04-30T23:52:48.578Z,99485.34
2018-04-30T23:55:14.972Z,99485.00
2018-04-30T23:57:42.326Z,99483.11
